Time,TemperatureF,DewpointF,PressureIn,WindDirection,WindDirectionDegrees,WindSpeedMPH,WindSpeedGustMPH,Humidity,HourlyPrecipIn,Conditions,Clouds,dailyrainin,SoftwareType,DateUTC
2013-10-23 00:14:00,74.0,69.0,29.86,WNW,298,0.0,0.0,85,0.00,,,0.03,,2013-10-23 04:14:00,
2013-10-23 00:24:00,74.0,69.0,29.86,WNW,298,0.0,0.0,85,0.00,,,0.03,,2013-10-23 04:24:00,
2013-10-23 00:34:00,74.0,69.0,29.86,WNW,298,0.0,0.0,85,0.00,,,0.03,,2013-10-23 04:34:00,
2013-10-23 00:55:00,73.0,68.0,29.85,WNW,298,0.0,0.0,85,0.00,,,0.03,,2013-10-23 04:55:00,
2013-10-23 01:04:00,73.0,68.0,29.85,WNW,298,0.0,0.0,85,0.00,,,0.03,,2013-10-23 05:04:00,
2013-10-23 01:23:00,73.0,68.0,29.84,WNW,298,0.0,0.0,85,0.00,,,0.03,,2013-10-23 05:23:00,
2013-10-23 01:53:00,73.0,68.0,29.84,WNW,298,0.0,0.0,85,0.00,,,0.03,,2013-10-23 05:53:00,
2013-10-23 02:22:00,72.0,67.0,29.84,WNW,298,0.0,0.0,85,0.00,,,0.03,,2013-10-23 06:22:00,
2013-10-23 02:42:00,72.0,67.0,29.84,WNW,298,0.0,0.0,85,0.00,,,0.03,,2013-10-23 06:42:00,
2013-10-23 02:52:00,72.0,67.0,29.83,WNW,298,0.0,0.0,85,0.00,,,0.03,,2013-10-23 06:52:00,
2013-10-23 03:12:00,72.0,67.0,29.83,WNW,298,0.0,0.0,85,0.00,,,0.03,,2013-10-23 07:12:00,
2013-10-23 03:22:00,72.0,67.0,29.83,WNW,298,0.0,0.0,85,0.00,,,0.03,,2013-10-23 07:22:00,
2013-10-23 03:52:00,72.0,67.0,29.82,WNW,298,0.0,0.0,85,0.00,,,0.03,,2013-10-23 07:52:00,
2013-10-23 04:02:00,72.0,67.0,29.82,WNW,298,0.0,0.0,85,0.00,,,0.03,,2013-10-23 08:02:00,
2013-10-23 04:22:00,72.0,67.0,29.81,WNW,298,0.0,0.0,85,0.00,,,0.03,,2013-10-23 08:22:00,
2013-10-23 04:53:00,72.0,67.0,29.81,WNW,298,0.0,0.0,85,0.00,,,0.03,,2013-10-23 08:53:00,
2013-10-23 05:12:00,72.0,67.0,29.81,WNW,298,0.0,0.0,85,0.00,,,0.03,,2013-10-23 09:12:00,
2013-10-23 05:22:00,72.0,67.0,29.81,WNW,298,0.0,0.0,85,0.00,,,0.03,,2013-10-23 09:22:00,
2013-10-23 05:53:00,72.0,67.0,29.82,WNW,298,0.0,0.0,85,0.00,,,0.03,,2013-10-23 09:53:00,
2013-10-23 06:13:00,71.0,66.0,29.82,WNW,298,0.0,0.0,85,0.00,,,0.03,,2013-10-23 10:13:00,
2013-10-23 06:23:00,71.0,66.0,29.82,WNW,298,0.0,0.0,85,0.00,,,0.03,,2013-10-23 10:23:00,
2013-10-23 06:53:00,71.0,66.0,29.83,WNW,298,0.0,0.0,85,0.00,,,0.03,,2013-10-23 10:53:00,
2013-10-23 07:12:00,71.0,66.0,29.84,WNW,298,0.0,0.0,85,0.00,,,0.03,,2013-10-23 11:12:00,
2013-10-23 07:22:00,71.0,66.0,29.84,WNW,298,0.0,0.0,85,0.00,,,0.03,,2013-10-23 11:22:00,
2013-10-23 07:52:00,70.0,65.0,29.84,WNW,298,0.0,0.0,85,0.00,,,0.03,,2013-10-23 11:52:00,
2013-10-23 08:22:00,71.0,66.0,29.85,WNW,298,0.0,0.0,85,0.00,,,0.03,,2013-10-23 12:22:00,
2013-10-23 08:32:00,71.0,66.0,29.85,WNW,298,0.0,0.0,85,0.00,,,0.03,,2013-10-23 12:32:00,
2013-10-23 08:52:00,73.0,69.0,29.85,WNW,298,0.0,0.0,86,0.00,,,0.03,,2013-10-23 12:52:00,
2013-10-23 09:22:00,75.0,71.0,29.87,WNW,298,0.0,0.0,87,0.00,,,0.03,,2013-10-23 13:22:00,
2013-10-23 09:52:00,78.0,73.0,29.86,WNW,298,0.0,0.0,85,0.00,,,0.03,,2013-10-23 13:52:00,
2013-10-23 10:22:00,82.0,76.0,29.87,West,262,0.0,5.0,83,0.00,,,0.03,,2013-10-23 14:22:00,
2013-10-23 10:52:00,83.0,77.0,29.86,NW,318,0.0,5.0,81,0.00,,,0.03,,2013-10-23 14:52:00,
2013-10-23 11:01:00,83.0,77.0,29.86,NW,318,0.0,5.0,81,0.00,,,0.03,,2013-10-23 15:01:00,
2013-10-23 11:22:00,82.0,75.0,29.88,WNW,282,0.0,3.0,80,0.00,,,0.03,,2013-10-23 15:22:00,
2013-10-23 11:43:00,84.0,76.0,29.88,WSW,252,3.0,5.0,77,0.00,,,0.03,,2013-10-23 15:43:00,
2013-10-23 11:53:00,85.0,75.0,29.88,West,259,2.0,6.0,73,0.00,,,0.03,,2013-10-23 15:53:00,
2013-10-23 12:53:00,86.0,77.0,29.87,North,5,0.0,7.0,75,0.00,,,0.03,,2013-10-23 16:53:00,
2013-10-23 13:03:00,86.0,77.0,29.87,North,5,0.0,7.0,75,0.00,,,0.03,,2013-10-23 17:03:00,
2013-10-23 13:23:00,86.0,75.0,29.86,NE,35,0.0,3.0,70,0.00,,,0.03,,2013-10-23 17:23:00,
2013-10-23 13:52:00,87.0,76.0,29.84,WNW,303,0.0,6.0,70,0.00,,,0.03,,2013-10-23 17:52:00,
2013-10-23 14:22:00,86.0,75.0,29.83,ENE,72,0.0,6.0,70,0.00,,,0.03,,2013-10-23 18:22:00,
2013-10-23 14:32:00,86.0,75.0,29.83,ENE,72,0.0,6.0,70,0.00,,,0.03,,2013-10-23 18:32:00,
2013-10-23 14:42:00,86.0,75.0,29.83,ENE,72,0.0,6.0,70,0.00,,,0.03,,2013-10-23 18:42:00,
2013-10-23 14:52:00,86.0,74.0,29.83,NNW,330,0.0,5.0,68,0.00,,,0.03,,2013-10-23 18:52:00,
2013-10-23 15:02:00,86.0,74.0,29.83,NNW,330,0.0,5.0,68,0.00,,,0.03,,2013-10-23 19:02:00,
2013-10-23 15:12:00,86.0,74.0,29.83,NNW,330,0.0,5.0,68,0.00,,,0.03,,2013-10-23 19:12:00,
2013-10-23 15:22:00,86.0,74.0,29.83,North,5,1.0,3.0,68,0.00,,,0.03,,2013-10-23 19:22:00,
2013-10-23 15:53:00,86.0,74.0,29.83,NNW,344,0.0,2.0,67,0.00,,,0.03,,2013-10-23 19:53:00,
2013-10-23 16:02:00,86.0,74.0,29.83,NNW,344,0.0,2.0,67,0.00,,,0.03,,2013-10-23 20:02:00,
2013-10-23 16:22:00,84.0,72.0,29.83,North,360,0.0,7.0,67,0.00,,,0.03,,2013-10-23 20:22:00,
2013-10-23 16:52:00,84.0,73.0,29.83,North,5,2.0,7.0,69,0.00,,,0.03,,2013-10-23 20:52:00,
2013-10-23 17:02:00,84.0,73.0,29.83,North,5,2.0,7.0,69,0.00,,,0.03,,2013-10-23 21:02:00,
2013-10-23 17:22:00,84.0,70.0,29.85,NNW,336,0.0,3.0,64,0.00,,,0.03,,2013-10-23 21:22:00,
2013-10-23 17:54:00,82.0,69.0,29.86,NW,319,0.0,3.0,66,0.00,,,0.03,,2013-10-23 21:54:00,
2013-10-23 18:24:00,81.0,68.0,29.86,ENE,62,0.0,2.0,65,0.00,,,0.03,,2013-10-23 22:24:00,
2013-10-23 18:54:00,80.0,68.0,29.87,NNE,23,0.0,3.0,66,0.00,,,0.03,,2013-10-23 22:54:00,
2013-10-23 19:03:00,80.0,68.0,29.87,NNE,23,0.0,3.0,66,0.00,,,0.03,,2013-10-23 23:03:00,
2013-10-23 19:22:00,79.0,68.0,29.88,NNW,336,0.0,4.0,68,0.00,,,0.03,,2013-10-23 23:22:00,
2013-10-23 19:34:00,79.0,68.0,29.88,NNW,336,0.0,4.0,68,0.00,,,0.03,,2013-10-23 23:34:00,
2013-10-23 19:53:00,78.0,67.0,29.89,NW,318,0.0,4.0,70,0.00,,,0.03,,2013-10-23 23:53:00,
2013-10-23 20:12:00,77.0,67.0,29.90,NNW,327,0.0,4.0,71,0.00,,,0.03,,2013-10-24 00:12:00,
2013-10-23 20:22:00,77.0,66.0,29.91,NNW,348,1.0,4.0,70,0.00,,,0.03,,2013-10-24 00:22:00,
2013-10-23 20:52:00,76.0,65.0,29.91,NNW,331,0.0,1.0,69,0.00,,,0.03,,2013-10-24 00:52:00,
2013-10-23 21:22:00,76.0,66.0,29.92,NW,316,0.0,0.0,71,0.00,,,0.03,,2013-10-24 01:22:00,
2013-10-23 21:52:00,76.0,66.0,29.93,NW,316,0.0,1.0,72,0.00,,,0.03,,2013-10-24 01:52:00,
2013-10-23 22:02:00,76.0,66.0,29.93,NW,316,0.0,1.0,72,0.00,,,0.03,,2013-10-24 02:02:00,
2013-10-23 22:12:00,76.0,66.0,29.93,NW,316,0.0,1.0,72,0.00,,,0.03,,2013-10-24 02:12:00,
2013-10-23 22:22:00,75.0,67.0,29.94,NW,316,0.0,2.0,75,0.00,,,0.03,,2013-10-24 02:22:00,
2013-10-23 22:32:00,75.0,67.0,29.94,NW,316,0.0,2.0,75,0.00,,,0.03,,2013-10-24 02:32:00,
2013-10-23 22:42:00,75.0,67.0,29.94,NW,316,0.0,2.0,75,0.00,,,0.03,,2013-10-24 02:42:00,
2013-10-23 23:22:00,74.0,67.0,29.94,NW,316,0.0,1.0,78,0.00,,,0.00,,2013-10-24 03:22:00,
2013-10-23 23:34:00,74.0,67.0,29.94,NW,316,0.0,1.0,78,0.00,,,0.00,,2013-10-24 03:34:00,
2013-10-23 23:54:00,73.0,61.0,29.96,NNE,22,0.0,2.0,66,0.00,,,0.00,,2013-10-24 03:54:00,